createdAt,value
2019-01-30T00:02:09.445Z,80.74
2019-01-30T00:04:38.787Z,80.86
2019-01-30T00:07:08.146Z,81.00
2019-01-30T00:09:37.436Z,80.90
2019-01-30T00:12:06.791Z,81.23
2019-01-30T00:14:36.014Z,81.14
2019-01-30T00:17:05.323Z,81.25
2019-01-30T00:19:34.701Z,81.35
2019-01-30T00:22:04.352Z,81.19
2019-01-30T00:24:33.701Z,80.54
2019-01-30T00:27:03.103Z,80.60
2019-01-30T00:29:32.898Z,80.98
2019-01-30T00:32:02.263Z,81.15
2019-01-30T00:34:31.531Z,81.25
2019-01-30T00:37:00.847Z,80.89
2019-01-30T00:39:30.187Z,81.16
2019-01-30T00:41:59.491Z,81.27
2019-01-30T00:44:28.747Z,81.22
2019-01-30T00:46:57.998Z,81.10
2019-01-30T00:49:29.564Z,81.10
2019-01-30T00:51:58.857Z,81.15
2019-01-30T00:54:32.223Z,80.74
2019-01-30T00:56:59.191Z,80.74
2019-01-30T00:59:28.466Z,80.81
2019-01-30T01:01:57.819Z,80.63
2019-01-30T01:04:27.076Z,80.45
2019-01-30T01:06:56.287Z,80.28
2019-01-30T01:09:25.550Z,80.92
2019-01-30T01:11:54.833Z,80.91
2019-01-30T01:14:24.083Z,80.67
2019-01-30T01:16:53.326Z,80.59
2019-01-30T01:19:22.575Z,80.49
2019-01-30T01:21:51.951Z,80.82
2019-01-30T01:24:21.225Z,80.67
2019-01-30T01:26:50.482Z,80.73
2019-01-30T01:29:19.711Z,80.50
2019-01-30T01:31:48.957Z,80.50
2019-01-30T01:34:18.217Z,80.37
2019-01-30T01:36:47.421Z,80.58
2019-01-30T01:39:16.678Z,80.67
2019-01-30T01:41:46.001Z,80.40
2019-01-30T01:44:15.472Z,80.05
2019-01-30T01:46:44.797Z,80.17
2019-01-30T01:49:14.021Z,80.44
2019-01-30T01:51:43.341Z,80.17
2019-01-30T01:54:12.642Z,80.33
2019-01-30T01:56:42.084Z,80.25
2019-01-30T01:59:11.336Z,80.19
2019-01-30T02:01:40.590Z,80.06
2019-01-30T02:04:09.868Z,79.76
2019-01-30T02:06:39.090Z,79.86
2019-01-30T02:09:09.056Z,80.07
2019-01-30T02:11:38.297Z,80.29
2019-01-30T02:14:07.565Z,80.32
2019-01-30T02:16:36.951Z,80.15
2019-01-30T02:19:06.201Z,79.63
2019-01-30T02:21:35.455Z,79.66
2019-01-30T02:24:04.740Z,79.75
2019-01-30T02:26:34.010Z,79.76
2019-01-30T02:29:03.241Z,79.84
2019-01-30T02:31:32.512Z,79.56
2019-01-30T02:34:01.758Z,79.47
2019-01-30T02:36:31.305Z,79.68
2019-01-30T02:39:00.618Z,79.54
2019-01-30T02:41:29.962Z,79.50
2019-01-30T02:43:59.335Z,79.74
2019-01-30T02:46:28.548Z,79.83
2019-01-30T02:48:57.819Z,79.50
2019-01-30T02:51:27.062Z,79.58
2019-01-30T02:53:56.426Z,79.81
2019-01-30T02:56:25.743Z,79.54
2019-01-30T02:58:55.020Z,79.42
2019-01-30T03:01:24.275Z,79.21
2019-01-30T03:03:53.519Z,79.39
2019-01-30T03:06:22.727Z,79.67
2019-01-30T03:08:52.123Z,79.90
2019-01-30T03:12:00.596Z,79.90
2019-01-30T03:14:29.830Z,79.84
2019-01-30T03:16:59.092Z,79.95
2019-01-30T03:19:28.366Z,79.98
2019-01-30T03:21:57.604Z,80.06
2019-01-30T03:24:26.951Z,79.76
2019-01-30T03:26:56.218Z,79.52
2019-01-30T03:29:27.516Z,79.65
2019-01-30T03:31:56.807Z,79.23
2019-01-30T03:34:26.144Z,79.35
2019-01-30T03:36:55.629Z,79.21
2019-01-30T03:39:24.873Z,79.19
2019-01-30T03:41:54.141Z,78.97
2019-01-30T03:44:23.522Z,79.06
2019-01-30T03:46:52.751Z,78.91
2019-01-30T03:49:22.085Z,79.28
2019-01-30T03:51:51.447Z,79.49
2019-01-30T03:57:49.961Z,79.16
2019-01-30T04:00:21.382Z,78.71
2019-01-30T04:02:51.269Z,78.58
2019-01-30T04:05:20.531Z,78.60
2019-01-30T04:07:49.844Z,78.48
2019-01-30T04:10:21.069Z,78.76
2019-01-30T04:12:50.307Z,78.73
2019-01-30T04:15:19.717Z,78.59
2019-01-30T04:17:49.064Z,78.76
2019-01-30T04:20:19.298Z,78.55
2019-01-30T04:22:48.684Z,78.64
2019-01-30T04:25:18.363Z,78.47
2019-01-30T04:27:47.578Z,78.59
2019-01-30T04:30:21.858Z,78.63
2019-01-30T04:32:51.084Z,78.51
2019-01-30T04:35:20.392Z,78.15
2019-01-30T04:37:49.618Z,78.40
2019-01-30T04:40:20.448Z,78.82
2019-01-30T04:42:49.728Z,79.04
2019-01-30T04:45:21.521Z,79.24
2019-01-30T04:47:50.869Z,79.29
2019-01-30T04:50:20.236Z,79.15
2019-01-30T04:52:49.490Z,78.71
2019-01-30T04:55:19.036Z,78.80
2019-01-30T04:57:48.290Z,78.89
2019-01-30T05:00:19.885Z,78.29
2019-01-30T05:02:49.349Z,78.26
2019-01-30T05:05:18.716Z,78.15
2019-01-30T05:07:47.952Z,78.21
2019-01-30T05:10:17.306Z,78.45
2019-01-30T05:12:46.524Z,78.57
2019-01-30T05:15:17.514Z,78.60
2019-01-30T05:17:46.931Z,78.67
2019-01-30T05:20:17.771Z,78.27
2019-01-30T05:22:47.032Z,78.22
2019-01-30T05:25:16.621Z,78.20
2019-01-30T05:27:45.893Z,78.40
2019-01-30T05:30:21.424Z,78.47
2019-01-30T05:32:50.680Z,78.68
2019-01-30T05:35:20.100Z,78.86
2019-01-30T05:37:51.396Z,78.88
2019-01-30T05:40:20.568Z,78.93
2019-01-30T05:42:49.863Z,79.00
2019-01-30T05:45:19.139Z,79.14
2019-01-30T05:47:48.402Z,79.04
2019-01-30T05:50:17.724Z,79.01
2019-01-30T05:52:47.000Z,78.84
2019-01-30T05:55:17.824Z,78.83
2019-01-30T05:57:47.213Z,78.61
2019-01-30T06:00:26.887Z,78.54
2019-01-30T06:02:56.175Z,78.43
2019-01-30T06:05:25.420Z,78.46
2019-01-30T06:07:54.774Z,78.08
2019-01-30T06:10:24.058Z,78.33
2019-01-30T06:12:53.599Z,78.45
2019-01-30T06:15:22.844Z,78.54
2019-01-30T06:17:52.078Z,78.55
2019-01-30T06:20:23.824Z,78.49
2019-01-30T06:22:53.152Z,78.35
2019-01-30T06:25:22.486Z,78.48
2019-01-30T06:27:51.849Z,78.47
2019-01-30T06:30:21.179Z,77.86
2019-01-30T06:32:50.643Z,78.21
2019-01-30T06:35:19.948Z,78.08
2019-01-30T06:37:49.597Z,78.69
2019-01-30T06:40:27.427Z,78.62
2019-01-30T06:42:56.715Z,77.75
2019-01-30T06:45:26.221Z,77.89
2019-01-30T06:47:55.479Z,77.84
2019-01-30T06:50:24.723Z,77.69
2019-01-30T06:52:53.995Z,77.46
2019-01-30T06:55:23.374Z,77.39
2019-01-30T06:57:52.621Z,77.57
2019-01-30T07:00:23.993Z,77.25
2019-01-30T07:02:53.579Z,76.40
2019-01-30T07:05:22.801Z,76.76
2019-01-30T07:07:52.232Z,76.86
2019-01-30T07:10:23.456Z,77.12
2019-01-30T07:12:52.742Z,76.93
2019-01-30T07:15:22.419Z,77.00
2019-01-30T07:17:51.870Z,76.81
2019-01-30T07:20:21.146Z,76.90
2019-01-30T07:22:50.444Z,77.04
2019-01-30T07:25:22.928Z,77.11
2019-01-30T07:27:52.043Z,77.00
2019-01-30T07:30:39.489Z,76.67
2019-01-30T07:33:08.949Z,76.13
2019-01-30T07:35:38.321Z,76.52
2019-01-30T07:38:07.701Z,76.77
2019-01-30T07:40:37.250Z,76.72
2019-01-30T07:43:06.576Z,76.69
2019-01-30T07:45:35.972Z,76.76
2019-01-30T07:48:05.602Z,76.74
2019-01-30T07:50:34.854Z,76.22
2019-01-30T07:53:04.123Z,76.37
2019-01-30T07:55:33.496Z,76.07
2019-01-30T07:58:02.861Z,76.00
2019-01-30T08:00:33.680Z,75.71
2019-01-30T08:03:02.948Z,75.69
2019-01-30T08:05:32.217Z,75.83
2019-01-30T08:08:01.456Z,76.20
2019-01-30T08:10:30.708Z,75.77
2019-01-30T08:13:00.180Z,76.10
2019-01-30T08:15:29.553Z,75.94
2019-01-30T08:17:59.032Z,75.53
2019-01-30T08:20:28.336Z,75.83
2019-01-30T08:22:57.975Z,75.64
2019-01-30T08:25:27.697Z,75.94
2019-01-30T08:27:57.473Z,75.85
2019-01-30T08:30:29.404Z,76.03
2019-01-30T08:33:04.826Z,76.16
2019-01-30T08:35:33.020Z,75.96
2019-01-30T08:38:02.356Z,75.95
2019-01-30T08:40:32.050Z,76.02
2019-01-30T08:43:01.311Z,76.09
2019-01-30T08:45:32.052Z,75.99
2019-01-30T08:48:01.750Z,75.87
2019-01-30T08:50:31.661Z,75.81
2019-01-30T08:53:01.219Z,75.14
2019-01-30T08:55:30.507Z,74.96
2019-01-30T08:57:59.965Z,75.47
2019-01-30T09:01:14.370Z,75.26
2019-01-30T09:03:43.719Z,75.47
2019-01-30T09:06:12.989Z,74.70
2019-01-30T09:08:42.346Z,74.85
2019-01-30T09:11:11.756Z,74.99
2019-01-30T09:13:41.056Z,75.24
2019-01-30T09:16:10.336Z,75.16
2019-01-30T09:18:39.637Z,74.95
2019-01-30T09:21:08.900Z,75.01
2019-01-30T09:23:38.317Z,74.52
2019-01-30T09:26:07.622Z,74.00
2019-01-30T09:28:37.261Z,74.22
2019-01-30T09:31:06.560Z,74.16
2019-01-30T09:33:35.913Z,73.82
2019-01-30T09:36:05.295Z,73.60
2019-01-30T09:38:34.734Z,73.35
2019-01-30T09:41:04.178Z,73.76
2019-01-30T09:43:33.459Z,73.61
2019-01-30T09:46:03.039Z,73.61
2019-01-30T09:48:32.278Z,73.66
2019-01-30T09:51:01.695Z,73.63
2019-01-30T09:53:31.041Z,73.48
2019-01-30T09:56:00.389Z,73.44
2019-01-30T09:58:29.637Z,73.01
2019-01-30T10:00:58.949Z,72.93
2019-01-30T10:03:36.161Z,72.38
2019-01-30T10:05:59.551Z,72.62
2019-01-30T10:08:28.819Z,72.35
2019-01-30T10:10:58.204Z,72.58
2019-01-30T10:13:27.860Z,72.58
2019-01-30T10:15:57.239Z,72.42
2019-01-30T10:18:26.551Z,72.41
2019-01-30T10:20:55.920Z,71.92
2019-01-30T10:23:25.236Z,71.94
2019-01-30T10:25:54.515Z,71.64
2019-01-30T10:28:23.825Z,71.53
2019-01-30T10:33:21.355Z,71.84
2019-01-30T10:35:50.771Z,71.61
2019-01-30T10:38:20.251Z,71.52
2019-01-30T10:40:49.500Z,71.28
2019-01-30T10:43:18.977Z,71.34
2019-01-30T10:45:48.459Z,71.22
2019-01-30T10:48:17.781Z,70.62
2019-01-30T10:50:47.064Z,70.46
2019-01-30T10:53:16.397Z,70.66
2019-01-30T10:55:45.742Z,70.79
2019-01-30T10:58:17.351Z,70.53
2019-01-30T11:00:48.850Z,70.84
2019-01-30T11:03:18.581Z,69.94
2019-01-30T11:05:48.035Z,70.43
2019-01-30T11:08:17.499Z,69.70
2019-01-30T11:10:46.852Z,70.20
2019-01-30T11:13:16.140Z,69.27
2019-01-30T11:15:45.365Z,69.16
2019-01-30T11:18:16.146Z,69.36
2019-01-30T11:20:45.480Z,69.01
2019-01-30T11:23:14.962Z,69.03
2019-01-30T11:25:46.183Z,68.84
2019-01-30T11:28:15.734Z,68.64
2019-01-30T11:30:47.582Z,68.25
2019-01-30T11:33:17.232Z,67.92
2019-01-30T11:35:46.531Z,67.55
2019-01-30T11:38:15.843Z,67.26
2019-01-30T11:40:45.362Z,67.15
2019-01-30T11:43:14.670Z,67.37
2019-01-30T11:45:45.180Z,66.96
2019-01-30T11:48:14.445Z,67.40
2019-01-30T11:50:44.057Z,67.32
2019-01-30T11:53:13.549Z,66.42
2019-01-30T11:55:43.006Z,66.36
2019-01-30T11:58:12.311Z,65.86
2019-01-30T12:04:22.490Z,65.68
2019-01-30T12:06:51.791Z,64.86
2019-01-30T12:09:21.065Z,65.15
2019-01-30T12:11:53.369Z,64.47
2019-01-30T12:14:22.621Z,64.09
2019-01-30T12:16:52.043Z,64.33
2019-01-30T12:19:21.431Z,64.62
2019-01-30T12:21:50.779Z,64.27
2019-01-30T12:24:20.279Z,63.95
2019-01-30T12:26:49.539Z,63.67
2019-01-30T12:29:18.832Z,63.93
2019-01-30T12:31:48.079Z,63.67
2019-01-30T12:34:17.322Z,63.69
2019-01-30T12:36:48.223Z,63.50
2019-01-30T12:39:17.551Z,63.21
2019-01-30T12:41:47.014Z,63.25
2019-01-30T12:44:16.353Z,63.07
2019-01-30T12:46:45.649Z,62.99
2019-01-30T12:49:15.089Z,62.25
2019-01-30T12:51:44.322Z,62.27
2019-01-30T12:54:13.673Z,62.52
2019-01-30T12:56:43.071Z,62.42
2019-01-30T12:59:12.467Z,62.34
2019-01-30T13:01:41.717Z,62.22
2019-01-30T13:04:10.981Z,61.69
2019-01-30T13:06:40.224Z,62.13
2019-01-30T13:09:10.676Z,61.52
2019-01-30T13:11:39.980Z,61.16
2019-01-30T13:14:09.234Z,61.09
2019-01-30T13:16:38.835Z,60.38
2019-01-30T13:22:28.014Z,59.75
2019-01-30T13:24:57.385Z,59.44
2019-01-30T13:27:32.878Z,58.62
2019-01-30T13:30:02.109Z,58.35
2019-01-30T13:32:31.669Z,58.49
2019-01-30T13:35:00.913Z,58.98
2019-01-30T13:41:11.157Z,57.62
2019-01-30T13:43:40.419Z,57.08
2019-01-30T13:46:09.694Z,56.98
2019-01-30T13:48:39.510Z,57.13
2019-01-30T13:51:11.258Z,56.79
2019-01-30T13:54:07.460Z,56.83
2019-01-30T13:56:36.730Z,57.07
2019-01-30T13:59:05.964Z,57.03
2019-01-30T14:01:35.309Z,56.72
2019-01-30T14:04:04.546Z,57.82
2019-01-30T14:06:33.880Z,57.00
2019-01-30T14:09:04.088Z,56.88
2019-01-30T14:11:33.792Z,56.56
2019-01-30T14:14:03.025Z,56.90
2019-01-30T14:16:32.266Z,57.13
2019-01-30T14:19:01.537Z,56.92
2019-01-30T14:21:30.765Z,56.72
2019-01-30T14:23:59.987Z,56.25
2019-01-30T14:26:29.354Z,55.21
2019-01-30T14:29:19.336Z,54.57
2019-01-30T14:31:48.644Z,54.73
2019-01-30T14:34:17.897Z,54.28
2019-01-30T14:36:47.246Z,54.18
2019-01-30T14:39:16.509Z,53.90
2019-01-30T14:41:45.763Z,54.16
2019-01-30T14:44:15.050Z,54.13
2019-01-30T14:46:44.328Z,53.64
2019-01-30T14:49:13.665Z,54.01
2019-01-30T14:51:42.961Z,53.76
2019-01-30T14:54:12.294Z,53.57
2019-01-30T14:56:41.677Z,53.92
2019-01-30T14:59:10.917Z,53.91
2019-01-30T15:01:40.352Z,54.42
2019-01-30T15:04:09.660Z,54.44
2019-01-30T15:06:38.910Z,54.77
2019-01-30T15:09:10.095Z,54.76
2019-01-30T15:11:39.364Z,55.31
2019-01-30T15:14:08.717Z,56.12
2019-01-30T15:16:38.047Z,56.42
2019-01-30T15:19:07.513Z,56.46
2019-01-30T15:21:36.821Z,56.46
2019-01-30T15:24:06.571Z,56.83
2019-01-30T15:26:36.025Z,57.04
2019-01-30T15:29:05.866Z,57.37
2019-01-30T15:31:35.286Z,57.53
2019-01-30T15:34:04.531Z,57.89
2019-01-30T15:36:34.020Z,58.19
2019-01-30T15:39:04.457Z,58.41
2019-01-30T15:41:33.929Z,58.35
2019-01-30T15:44:03.155Z,58.69
2019-01-30T15:46:32.450Z,58.86
2019-01-30T15:49:01.707Z,59.12
2019-01-30T15:51:31.004Z,59.50
2019-01-30T15:54:00.266Z,59.58
2019-01-30T15:56:29.514Z,59.65
2019-01-30T15:58:58.969Z,59.72
2019-01-30T16:01:32.944Z,59.75
2019-01-30T16:04:05.952Z,60.01
2019-01-30T16:06:33.206Z,60.21
2019-01-30T16:09:02.510Z,60.56
2019-01-30T16:11:31.886Z,60.45
2019-01-30T16:14:01.262Z,60.92
2019-01-30T16:16:30.519Z,61.23
2019-01-30T16:18:59.873Z,61.08
2019-01-30T16:21:29.234Z,61.30
2019-01-30T16:23:58.601Z,60.96
2019-01-30T16:26:27.985Z,60.94
2019-01-30T16:28:57.233Z,61.39
2019-01-30T16:31:26.579Z,61.94
2019-01-30T16:33:55.888Z,61.79
2019-01-30T16:36:25.321Z,61.76
2019-01-30T16:38:54.579Z,61.69
2019-01-30T16:41:23.932Z,61.87
2019-01-30T16:43:53.291Z,61.60
2019-01-30T16:47:13.633Z,61.56
2019-01-30T16:49:42.911Z,61.63
2019-01-30T16:52:12.168Z,62.02
2019-01-30T16:54:41.468Z,61.88
2019-01-30T16:57:11.057Z,61.95
2019-01-30T16:59:40.328Z,62.26
2019-01-30T17:02:09.990Z,62.39
2019-01-30T17:04:39.430Z,62.41
2019-01-30T17:07:08.965Z,62.51
2019-01-30T17:09:38.356Z,62.23
2019-01-30T17:12:07.617Z,62.15
2019-01-30T17:14:36.918Z,62.26
2019-01-30T17:17:06.199Z,62.54
2019-01-30T17:19:35.466Z,62.36
2019-01-30T17:22:04.704Z,62.12
2019-01-30T17:24:34.090Z,62.25
2019-01-30T17:27:03.299Z,62.06
2019-01-30T17:29:32.583Z,62.16
2019-01-30T17:32:02.352Z,62.29
2019-01-30T17:34:31.610Z,62.33
2019-01-30T17:37:00.910Z,61.96
2019-01-30T17:39:30.424Z,62.24
2019-01-30T17:41:59.743Z,62.12
2019-01-30T17:44:29.045Z,62.20
2019-01-30T17:46:58.316Z,62.11
2019-01-30T17:49:27.747Z,62.32
2019-01-30T17:51:56.996Z,62.33
2019-01-30T17:54:26.568Z,62.34
2019-01-30T17:56:56.049Z,62.04
2019-01-30T17:59:25.402Z,62.96
2019-01-30T18:01:54.846Z,63.61
2019-01-30T18:04:24.435Z,64.03
2019-01-30T18:06:53.798Z,64.54
2019-01-30T18:09:23.019Z,65.52
2019-01-30T18:11:52.253Z,66.47
2019-01-30T18:14:21.512Z,67.54
2019-01-30T18:16:51.098Z,69.16
2019-01-30T18:19:20.418Z,72.90
2019-01-30T18:21:49.963Z,74.80
2019-01-30T18:24:19.349Z,74.75
2019-01-30T18:26:48.779Z,74.89
2019-01-30T18:29:18.099Z,75.73
2019-01-30T18:31:47.481Z,76.36
2019-01-30T18:34:16.810Z,76.04
2019-01-30T18:36:46.232Z,75.77
2019-01-30T18:39:15.517Z,75.90
2019-01-30T18:41:44.804Z,75.38
2019-01-30T18:44:14.357Z,75.26
2019-01-30T18:46:43.962Z,75.67
2019-01-30T18:49:13.251Z,75.94
2019-01-30T18:51:42.833Z,76.72
2019-01-30T18:54:12.104Z,79.28
2019-01-30T18:56:41.515Z,80.53
2019-01-30T18:59:11.030Z,81.30
2019-01-30T19:01:40.307Z,81.41
2019-01-30T19:04:09.826Z,82.22
2019-01-30T19:06:39.234Z,81.90
2019-01-30T19:09:11.352Z,81.19
2019-01-30T19:11:40.915Z,82.08
2019-01-30T19:14:10.267Z,82.09
2019-01-30T19:16:39.778Z,81.53
2019-01-30T19:19:09.199Z,80.40
2019-01-30T19:21:38.887Z,80.32
2019-01-30T19:24:08.134Z,80.61
2019-01-30T19:26:37.678Z,80.48
2019-01-30T19:29:06.982Z,80.16
2019-01-30T19:31:36.364Z,79.09
2019-01-30T19:34:05.770Z,79.68
2019-01-30T19:36:35.454Z,79.40
2019-01-30T19:39:07.589Z,79.36
2019-01-30T19:41:36.988Z,79.17
2019-01-30T19:44:06.460Z,77.99
2019-01-30T19:46:36.826Z,78.07
2019-01-30T19:49:06.216Z,78.07
2019-01-30T19:51:35.769Z,78.08
2019-01-30T19:54:05.228Z,77.53
2019-01-30T19:56:34.745Z,77.28
2019-01-30T19:59:04.031Z,77.21
2019-01-30T20:01:36.299Z,76.90
2019-01-30T20:04:04.614Z,75.69
2019-01-30T20:06:34.196Z,75.68
2019-01-30T20:09:05.290Z,75.73
2019-01-30T20:11:34.838Z,75.14
2019-01-30T20:14:04.497Z,74.92
2019-01-30T20:16:33.992Z,74.89
2019-01-30T20:19:03.732Z,75.25
2019-01-30T20:21:33.252Z,75.14
2019-01-30T20:24:02.602Z,75.37
2019-01-30T20:26:31.966Z,75.16
2019-01-30T20:29:01.550Z,74.90
2019-01-30T20:31:31.891Z,74.40
2019-01-30T20:34:10.052Z,74.60
2019-01-30T20:36:32.375Z,74.07
2019-01-30T20:39:01.946Z,73.60
2019-01-30T20:41:31.373Z,74.02
2019-01-30T20:44:01.330Z,73.73
2019-01-30T20:46:31.212Z,73.60
2019-01-30T20:49:01.053Z,73.59
2019-01-30T20:51:30.317Z,73.03
2019-01-30T20:54:00.662Z,73.63
2019-01-30T20:56:30.239Z,72.71
2019-01-30T20:58:59.939Z,72.52
2019-01-30T21:01:29.378Z,72.23
2019-01-30T21:03:59.940Z,72.56
2019-01-30T21:06:29.901Z,71.90
2019-01-30T21:08:59.406Z,72.25
2019-01-30T21:11:28.796Z,72.18
2019-01-30T21:13:58.158Z,71.64
2019-01-30T21:16:27.608Z,71.31
2019-01-30T21:18:56.953Z,71.62
2019-01-30T21:21:26.456Z,71.83
2019-01-30T21:23:56.147Z,71.54
2019-01-30T21:26:25.863Z,71.84
2019-01-30T21:28:55.393Z,71.63
2019-01-30T21:31:25.279Z,71.66
2019-01-30T21:33:55.355Z,72.04
2019-01-30T21:36:24.887Z,74.05
2019-01-30T21:38:54.342Z,74.08
2019-01-30T21:41:23.634Z,74.01
2019-01-30T21:43:53.219Z,74.02
2019-01-30T21:46:22.887Z,73.71
2019-01-30T21:48:55.227Z,73.78
2019-01-30T21:51:23.578Z,73.16
2019-01-30T21:53:52.914Z,73.31
2019-01-30T21:56:22.287Z,73.23
2019-01-30T21:58:51.761Z,72.90
2019-01-30T22:01:21.355Z,72.88
2019-01-30T22:03:50.782Z,72.40
2019-01-30T22:06:20.178Z,72.33
2019-01-30T22:08:49.485Z,72.39
2019-01-30T22:11:18.855Z,71.72
2019-01-30T22:13:48.244Z,71.27
2019-01-30T22:16:17.618Z,71.51
2019-01-30T22:18:46.944Z,71.68
2019-01-30T22:21:16.356Z,70.82
2019-01-30T22:23:45.638Z,70.98
2019-01-30T22:26:14.952Z,70.75
2019-01-30T22:28:44.243Z,70.37
2019-01-30T22:31:13.604Z,70.25
2019-01-30T22:33:42.976Z,70.76
2019-01-30T22:36:12.233Z,70.39
2019-01-30T22:38:41.464Z,70.30
2019-01-30T22:41:10.864Z,70.69
2019-01-30T22:43:40.285Z,70.50
2019-01-30T22:46:09.655Z,70.69
2019-01-30T22:48:38.913Z,69.93
2019-01-30T22:51:08.310Z,70.16
2019-01-30T22:53:37.747Z,70.60
2019-01-30T22:56:08.386Z,70.84
2019-01-30T22:58:37.772Z,70.56
2019-01-30T23:02:00.415Z,70.84
2019-01-30T23:05:13.535Z,70.60
2019-01-30T23:08:22.934Z,71.04
2019-01-30T23:11:18.935Z,70.91
2019-01-30T23:14:03.714Z,70.94
2019-01-30T23:17:15.361Z,70.73
2019-01-30T23:20:12.321Z,70.60
2019-01-30T23:23:43.886Z,70.54
2019-01-30T23:26:43.579Z,70.63
2019-01-30T23:29:42.312Z,70.36
2019-01-30T23:32:55.022Z,70.38
2019-01-30T23:36:02.146Z,70.17
2019-01-30T23:39:12.151Z,70.56
2019-01-30T23:42:11.861Z,70.70
2019-01-30T23:45:15.106Z,70.79
2019-01-30T23:48:20.187Z,70.91
2019-01-30T23:51:21.353Z,70.56
2019-01-30T23:54:34.480Z,70.67
2019-01-30T23:57:57.125Z,70.38
